NCAR-RAP Real-Time Weather Data

Output produced by METARs form (19 June 2019  11:01 UTC)
found at http://weather.rap.ucar.edu/surface/
 
KRFD 191054Z 02006KT 10SM SCT120 OVC250 19/17 A2983 RMK AO2 SLP096 T01940172
KRFD 190954Z 35005KT 10SM OVC120 19/18 A2983 RMK AO2 SLP097 T01940178
KRFD 190854Z 33003KT 10SM SCT050 OVC100 19/18 A2984 RMK AO2 SLP100 T01940178 56012
KRFD 190754Z 00000KT 10SM OVC095 19/18 A2985 RMK AO2 SLP103 T01940178
KRFD 190654Z 00000KT 10SM SCT095 BKN120 OVC140 21/18 A2986 RMK AO2 SLP107 T02110178
KRFD 190554Z 34004KT 10SM BKN095 21/18 A2987 RMK AO2 SLP112 T02060178 10250 20206 402780128 58006
KRFD 190454Z 35004KT 10SM OVC090 21/18 A2988 RMK AO2 SLP115 T02110178
KRFD 190354Z 33003KT 10SM OVC090 22/17 A2989 RMK AO2 SLP118 T02170172
KRFD 190254Z 33003KT 10SM OVC250 22/17 A2989 RMK AO2 SLP118 T02220167 53009
KRFD 190154Z 26004KT 10SM BKN060 OVC250 22/17 A2988 RMK AO2 SLP115 T02220172
KRFD 190054Z 26004KT 10SM SCT120 BKN250 24/17 A2986 RMK AO2 SLP109 T02390172
KRFD 182354Z 26005KT 10SM FEW050 SCT100 BKN250 24/17 A2987 RMK AO2 SLP110 T02440172 10278 20239 56011
KRFD 182254Z 26008KT 10SM FEW050 SCT110 BKN250 26/15 A2987 RMK AO2 SLP111 T02560150
KRFD 182154Z 24005KT 10SM FEW049 SCT120 BKN250 27/15 A2988 RMK AO2 SLP115 T02670150
KRFD 182054Z 24005KT 10SM SCT049 SCT150 27/16 A2990 RMK AO2 SLP121 T02670156 58018
KRFD 181954Z 21005KT 10SM SCT042 26/16 A2992 RMK AO2 SLP129 T02610161
KRFD 181854Z VRB04KT 10SM SCT039 SCT250 26/16 A2993 RMK AO2 SLP133 T02560161
KRFD 181754Z 00000KT 10SM SCT035 SCT250 26/17 A2995 RMK AO2 SLP140 T02560167 10256 20150 58009
KRFD 181654Z 33003KT 10SM BKN030 24/16 A2997 RMK AO2 SLP145 T02390161
KRFD 181614Z 00000KT 10SM FEW024 SCT030 SCT090 24/17 A2998 RMK AO2 T02390172
KRFD 181554Z VRB03KT 10SM BKN024 BKN160 24/17 A2998 RMK AO2 SLP148 T02390167
KRFD 181531Z 34004KT 10SM BKN022 22/17 A2998 RMK AO2 T02220167
KRFD 181454Z 36003KT 10SM FEW060 SCT250 22/17 A2998 RMK AO2 SLP149 T02220167 58002